Huntsville, Alabama
Current Conditions -  °F | °C
As of 7:53 PM on Monday 24 Nov 2014 (Local Time) from KHSV Reporting Station
Scattered Clouds Scattered Clouds  
Wind Chill: 50°   Ceiling: Unl
Heat Index: 50°   Visibility: 10mi
Dew Point: 37°   Wind: 6mph
Humidity: 61%   Direction: 300°WNW
Pressure: 29.99"   Gusts: NA
Location:  34.73°N, 86.58°W
Report Text: KHSV 250153Z 30005KT 10SM SCT250 10/03 A2999 RMK AO2 SLP151 T01000028
Loading
Personal Weather Stations






























Interactive Weather Map New forecast layout! Learn more

10-Day Weather Forecast

Advertisements
Track Severe Weather on mobile